Řízení letového provozu České republiky  
Aktualizace dat:  12.11.2018 19:54:08 UTC English version
   METEO Zobrazení stránky:  12.11.2018 19:55:07 UTC  
vysvětlivky
METAR EDDB 121950Z 18007KT CAVOK 11/07 Q1017 NOSIG=
METAR EDDC 121950Z 16013KT CAVOK 09/06 Q1020 NOSIG=
METAR EDDE 121950Z 19008KT 9999 FEW040 14/09 Q1018 NOSIG=
METAR EDDF 121950Z VRB01KT 9999 -SHRA FEW015 FEW025TCU 12/12 Q1018 NOSIG=
METAR EDDM 121950Z 06002KT 2200 1000NE R08L/0375V0600N R08R/0550V0800U BCFG NSC 04/04 Q1022 BECMG 0400 FG VV001=
METAR EDDN 121950Z 13010KT CAVOK 09/07 Q1021 NOSIG=
METAR EDDP 121950Z 17011KT CAVOK 12/08 Q1018 NOSIG=
METAR EDDT 121950Z 18007KT CAVOK 12/08 Q1017 NOSIG=
METAR EDQM 121850Z VRB02KT CAVOK 06/05 Q1021=
METAR EPBY 121930Z 15008KT 6000 NSC 10/09 Q1020 =
METAR EPGD 121930Z 18011KT 7000 NSC 10/08 Q1018 =
METAR EPKK 121930Z VRB01KT 5000 BR NSC 06/06 Q1024 =
METAR EPKT 121930Z 14006KT 5000 BR SCT044 06/05 Q1023 =
METAR EPLL 121930Z VRB02KT 6000 NSC 08/06 Q1022 =
METAR EPPO 121930Z 16007KT 6000 NSC 10/09 Q1019 R10/09//95 =
METAR EPRZ 121930Z 09007KT 5000 BR NSC 07/06 Q1026 =
METAR EPWA 121930Z 14008KT 9000 NSC 09/07 Q1024 NOSIG=
METAR EPWR 121930Z VRB01KT CAVOK 08/07 Q1021 =
METAR LHBP 121930Z 10012KT CAVOK 14/08 Q1025 NOSIG=
METAR LHSM NIL
SPECI LKBC 121941Z AUTO 15003KT 110V190 6000 OVC004 08/07 Q1022=
METAR LKCV 121900Z 26005KT 9999 OVC017 10/08 Q1023 NOSIG RMK WHT WHT=
SPECI LKKB 121941Z 03003KT 350V050 5000 BR OVC014 09/08 Q1023 NOSIG RMK GRN=
METAR LKKU NIL
METAR LKKV 121900Z 12005KT 1200 R29/P2000N BR OVC002 04/04 Q1022 RMK REG QNH 1018=
SPECI LKLN 121940Z AUTO 13003KT 090V160 6000 OVC004 07/07 Q1023=
METAR LKMT 121930Z 21004KT CAVOK 11/08 Q1023 NOSIG RMK REG QNH 1018=
METAR LKNA 121900Z 08006KT 6000 SCT022 09/08 Q1022 NOSIG RMK WHT WHT=
METAR LKPD 121900Z 02002KT 9999 OVC023 11/09 Q1023 RMK BLACK=
METAR LKPR 121930Z 16005KT 100V190 9999 OVC011 09/07 Q1023 NOSIG RMK REG QNH 1018=
METAR LKTB 121930Z 09006KT CAVOK 10/07 Q1023 NOSIG RMK REG QNH 1018=
METAR LKVO NIL
METAR LOWI 121920Z 25006KT 210V280 CAVOK 09/05 Q1023 NOSIG=
METAR LOWL 121920Z AUTO 14003KT 7000 OVC005 08/07 Q1023 TEMPO 4000 BR=
METAR LOWS 121920Z VRB01KT 8000 4000N MIFG VCFG FEW002 SCT004 05/05 Q1023 TEMPO 0400 BCFG BKN003=
METAR LOWW 121920Z VRB02KT 0800 R16/1000N R29/0600N FG VV001 09/09 Q1022 NOSIG=
METAR LZIB 121930Z 03004KT 360V060 9999 BKN045 12/08 Q1023 WS ALL RWY=
METAR LZKZ 121930Z 36002KT 8000 NSC 08/06 Q1027=
METAR LZMC 121900Z 14010G20KT 8000 SKC 14/08 Q1023=
METAR LZPP 121930Z 12014KT CAVOK 15/08 Q1023=
METAR LZSL 121930Z 01003KT 340V080 9999 BKN060 11/08 Q1026=
METAR LZTT 121930Z 23009KT 9999 SCT040 12/06 Q1025=
METAR LZZI 121930Z 09003KT CAVOK 08/06 Q1024=